createdAt,value
2019-03-30T00:01:16.080Z,73.00
2019-03-30T00:03:44.309Z,72.40
2019-03-30T00:06:12.646Z,72.80
2019-03-30T00:08:40.982Z,72.50
2019-03-30T00:11:09.189Z,72.20
2019-03-30T00:13:37.552Z,72.10
2019-03-30T00:16:07.309Z,72.20
2019-03-30T00:18:35.502Z,72.10
2019-03-30T00:21:03.705Z,73.00
2019-03-30T00:23:32.010Z,73.40
2019-03-30T00:26:00.328Z,73.70
2019-03-30T00:28:28.701Z,73.50
2019-03-30T00:30:56.951Z,73.60
2019-03-30T00:33:25.163Z,73.40
2019-03-30T00:35:53.599Z,73.10
2019-03-30T00:38:21.729Z,73.30
2019-03-30T00:40:50.084Z,72.80
2019-03-30T00:43:18.373Z,72.90
2019-03-30T00:45:46.701Z,72.80
2019-03-30T00:48:14.979Z,72.20
2019-03-30T00:50:43.258Z,72.40
2019-03-30T00:53:13.764Z,72.10
2019-03-30T00:55:42.160Z,72.20
2019-03-30T00:58:10.340Z,71.70
2019-03-30T01:00:45.749Z,71.00
2019-03-30T01:03:14.084Z,70.90
2019-03-30T01:05:42.399Z,70.70
2019-03-30T01:08:10.924Z,70.50
2019-03-30T01:10:39.210Z,70.40
2019-03-30T01:13:07.785Z,70.40
2019-03-30T01:15:39.917Z,69.70
2019-03-30T01:18:08.103Z,69.30
2019-03-30T01:20:36.578Z,69.00
2019-03-30T01:23:04.802Z,68.90
2019-03-30T01:25:32.998Z,68.90
2019-03-30T01:28:01.403Z,68.20
2019-03-30T01:30:29.627Z,67.80
2019-03-30T01:32:57.916Z,67.50
2019-03-30T01:35:26.265Z,67.40
2019-03-30T01:37:54.642Z,67.40
2019-03-30T01:40:23.238Z,67.30
2019-03-30T01:42:51.476Z,67.20
2019-03-30T01:45:19.652Z,67.10
2019-03-30T01:47:47.765Z,66.80
2019-03-30T01:50:17.953Z,66.80
2019-03-30T01:52:46.334Z,67.00
2019-03-30T01:55:14.670Z,67.10
2019-03-30T01:57:42.840Z,67.10
2019-03-30T02:00:11.466Z,67.10
2019-03-30T02:02:39.876Z,67.20
2019-03-30T02:05:08.363Z,67.50
2019-03-30T02:07:36.895Z,67.40
2019-03-30T02:10:05.723Z,67.10
2019-03-30T02:12:35.360Z,67.10
2019-03-30T02:15:05.160Z,67.20
2019-03-30T02:17:33.643Z,66.90
2019-03-30T02:20:02.263Z,66.60
2019-03-30T02:22:30.463Z,66.40
2019-03-30T02:24:58.972Z,66.20
2019-03-30T02:27:27.330Z,66.00
2019-03-30T02:29:55.536Z,66.00
2019-03-30T02:32:24.052Z,65.90
2019-03-30T02:34:52.241Z,66.10
2019-03-30T02:37:20.562Z,66.10
2019-03-30T02:39:48.794Z,66.00
2019-03-30T02:42:17.120Z,66.20
2019-03-30T02:44:45.337Z,66.50
2019-03-30T02:47:13.717Z,66.60
2019-03-30T02:49:42.231Z,66.50
2019-03-30T02:52:10.430Z,66.30
2019-03-30T02:54:38.665Z,66.30
2019-03-30T02:57:06.904Z,66.30
2019-03-30T02:59:35.086Z,66.50
2019-03-30T03:02:05.738Z,66.70
2019-03-30T03:04:34.443Z,66.90
2019-03-30T03:07:02.744Z,66.70
2019-03-30T03:09:30.953Z,66.70
2019-03-30T03:11:59.697Z,66.80
2019-03-30T03:14:27.940Z,67.10
2019-03-30T03:16:56.092Z,67.40
2019-03-30T03:19:24.665Z,67.30
2019-03-30T03:21:52.976Z,67.50
2019-03-30T03:24:21.183Z,66.90
2019-03-30T03:26:49.481Z,66.60
2019-03-30T03:29:17.890Z,66.90
2019-03-30T03:31:46.311Z,66.90
2019-03-30T03:34:14.557Z,66.90
2019-03-30T03:36:42.715Z,66.90
2019-03-30T03:39:10.985Z,67.00
2019-03-30T03:41:39.189Z,67.00
2019-03-30T03:44:07.517Z,66.80
2019-03-30T03:46:35.843Z,66.60
2019-03-30T03:49:05.088Z,66.80
2019-03-30T03:51:33.328Z,66.80
2019-03-30T03:54:01.679Z,67.10
2019-03-30T03:56:31.618Z,66.80
2019-03-30T03:59:01.896Z,66.80
2019-03-30T04:01:33.140Z,66.80
2019-03-30T04:04:04.840Z,66.80
2019-03-30T04:06:33.041Z,66.60
2019-03-30T04:09:04.718Z,66.50
2019-03-30T04:11:34.587Z,66.60
2019-03-30T04:14:03.781Z,66.80
2019-03-30T04:16:32.019Z,67.00
2019-03-30T04:19:02.475Z,67.10
2019-03-30T04:21:43.849Z,67.10
2019-03-30T04:24:00.843Z,66.70
2019-03-30T04:26:29.541Z,66.60
2019-03-30T04:28:57.769Z,66.40
2019-03-30T04:31:26.061Z,66.40
2019-03-30T04:33:54.363Z,66.00
2019-03-30T04:36:22.599Z,66.00
2019-03-30T04:38:50.915Z,66.00
2019-03-30T04:41:19.116Z,66.00
2019-03-30T04:43:47.421Z,66.20
2019-03-30T04:46:15.632Z,66.10
2019-03-30T04:48:44.735Z,65.90
2019-03-30T04:51:17.173Z,66.00
2019-03-30T04:53:45.493Z,65.90
2019-03-30T04:56:13.763Z,65.90
2019-03-30T04:58:41.943Z,65.50
2019-03-30T05:01:10.195Z,65.70
2019-03-30T05:03:38.555Z,65.60
2019-03-30T05:06:06.835Z,65.20
2019-03-30T05:08:36.317Z,65.40
2019-03-30T05:11:04.503Z,65.40
2019-03-30T05:13:32.737Z,65.10
2019-03-30T05:16:01.006Z,64.90
2019-03-30T05:18:29.309Z,64.90
2019-03-30T05:20:57.888Z,64.90
2019-03-30T05:23:26.346Z,64.90
2019-03-30T05:25:55.932Z,65.00
2019-03-30T05:28:24.417Z,64.80
2019-03-30T05:30:52.933Z,64.60
2019-03-30T05:33:21.066Z,64.50
2019-03-30T05:35:49.261Z,64.70
2019-03-30T05:38:17.610Z,64.50
2019-03-30T05:40:46.103Z,64.20
2019-03-30T05:43:14.355Z,64.40
2019-03-30T05:45:42.620Z,63.70
2019-03-30T05:48:10.876Z,63.70
2019-03-30T05:50:39.203Z,63.80
2019-03-30T05:53:07.510Z,63.70
2019-03-30T05:55:35.933Z,64.00
2019-03-30T05:58:04.160Z,63.50
2019-03-30T06:00:33.657Z,63.50
2019-03-30T06:03:01.978Z,63.60
2019-03-30T06:05:30.800Z,63.60
2019-03-30T06:07:59.005Z,63.20
2019-03-30T06:10:27.113Z,63.10
2019-03-30T06:12:55.503Z,63.10
2019-03-30T06:15:23.696Z,63.20
2019-03-30T06:17:51.942Z,63.10
2019-03-30T06:20:20.350Z,63.30
2019-03-30T06:22:51.369Z,63.20
2019-03-30T06:25:20.257Z,63.20
2019-03-30T06:27:49.649Z,63.10
2019-03-30T06:30:24.208Z,63.00
2019-03-30T06:32:52.545Z,63.00
2019-03-30T06:35:20.960Z,62.60
2019-03-30T06:37:51.292Z,62.60
2019-03-30T06:40:19.561Z,62.50
2019-03-30T06:42:47.833Z,62.50
2019-03-30T06:45:17.554Z,62.30
2019-03-30T06:47:45.826Z,62.40
2019-03-30T06:50:16.947Z,62.10
2019-03-30T06:52:56.867Z,62.30
2019-03-30T06:55:15.488Z,62.30
2019-03-30T06:57:43.679Z,62.30
2019-03-30T07:00:13.346Z,62.70
2019-03-30T07:02:42.364Z,62.20
2019-03-30T07:05:12.416Z,61.90
2019-03-30T07:07:46.510Z,62.00
2019-03-30T07:10:15.168Z,62.00
2019-03-30T07:12:45.411Z,61.70
2019-03-30T07:15:13.954Z,61.90
2019-03-30T07:17:47.038Z,61.80
2019-03-30T07:20:27.049Z,61.40
2019-03-30T07:22:56.128Z,61.50
2019-03-30T07:25:24.701Z,61.20
2019-03-30T07:27:53.372Z,61.10
2019-03-30T07:30:21.768Z,60.70
2019-03-30T07:32:50.011Z,60.80
2019-03-30T07:35:18.370Z,60.00
2019-03-30T07:37:47.046Z,59.40
2019-03-30T07:40:16.479Z,59.10
2019-03-30T07:42:44.705Z,59.50
2019-03-30T07:45:13.359Z,59.10
2019-03-30T07:47:41.718Z,59.20
2019-03-30T07:50:10.342Z,58.60
2019-03-30T07:52:38.600Z,58.70
2019-03-30T07:55:07.165Z,59.00
2019-03-30T07:57:35.454Z,58.80
2019-03-30T08:00:04.050Z,58.70
2019-03-30T08:02:32.308Z,59.40
2019-03-30T08:05:00.569Z,58.90
2019-03-30T08:07:29.825Z,58.80
2019-03-30T08:09:58.154Z,58.80
2019-03-30T08:12:26.431Z,58.80
2019-03-30T08:14:54.710Z,58.80
2019-03-30T08:17:24.417Z,58.70
2019-03-30T08:19:52.643Z,58.60
2019-03-30T08:22:20.976Z,59.00
2019-03-30T08:24:49.265Z,58.80
2019-03-30T08:27:17.661Z,58.30
2019-03-30T08:29:46.016Z,58.20
2019-03-30T08:32:14.268Z,58.30
2019-03-30T08:34:42.568Z,57.70
2019-03-30T08:37:11.068Z,57.20
2019-03-30T08:39:39.534Z,56.60
2019-03-30T08:42:08.249Z,56.70
2019-03-30T08:44:36.641Z,57.10
2019-03-30T08:47:05.011Z,57.00
2019-03-30T08:49:33.388Z,56.90
2019-03-30T08:52:01.734Z,57.00
2019-03-30T08:54:29.949Z,57.10
2019-03-30T08:56:58.487Z,57.10
2019-03-30T08:59:26.683Z,57.00
2019-03-30T09:01:56.088Z,57.10
2019-03-30T09:04:24.359Z,57.10
2019-03-30T09:06:55.518Z,56.90
2019-03-30T09:09:23.908Z,56.60
2019-03-30T09:11:52.261Z,56.50
2019-03-30T09:14:20.636Z,56.50
2019-03-30T09:16:49.697Z,57.40
2019-03-30T09:19:18.017Z,57.30
2019-03-30T09:21:46.484Z,56.50
2019-03-30T09:24:14.897Z,56.20
2019-03-30T09:26:43.389Z,56.20
2019-03-30T09:29:11.841Z,55.40
2019-03-30T09:31:40.299Z,55.70
2019-03-30T09:34:08.793Z,55.20
2019-03-30T09:36:37.053Z,54.40
2019-03-30T09:39:06.690Z,55.00
2019-03-30T09:41:34.920Z,55.60
2019-03-30T09:44:03.207Z,55.80
2019-03-30T09:46:33.944Z,55.20
2019-03-30T09:49:02.205Z,54.80
2019-03-30T09:51:30.577Z,55.20
2019-03-30T09:53:58.887Z,55.10
2019-03-30T09:56:27.492Z,55.10
2019-03-30T09:58:55.834Z,54.80
2019-03-30T10:01:24.153Z,54.70
2019-03-30T10:03:55.317Z,54.90
2019-03-30T10:06:34.271Z,54.20
2019-03-30T10:08:56.048Z,54.40
2019-03-30T10:11:24.304Z,54.50
2019-03-30T10:13:52.582Z,54.50
2019-03-30T10:16:21.082Z,54.60
2019-03-30T10:18:49.367Z,53.90
2019-03-30T10:21:17.658Z,54.30
2019-03-30T10:23:49.112Z,55.10
2019-03-30T10:26:17.382Z,54.50
2019-03-30T10:28:47.230Z,53.80
2019-03-30T10:31:15.641Z,54.30
2019-03-30T10:33:43.755Z,53.10
2019-03-30T10:36:12.199Z,53.10
2019-03-30T10:38:40.458Z,53.30
2019-03-30T10:41:08.783Z,52.50
2019-03-30T10:43:37.370Z,53.40
2019-03-30T10:46:05.771Z,53.00
2019-03-30T10:48:34.166Z,52.40
2019-03-30T10:51:02.365Z,51.60
2019-03-30T10:53:30.749Z,52.10
2019-03-30T10:56:00.084Z,52.20
2019-03-30T10:58:28.471Z,52.40
2019-03-30T11:00:57.028Z,53.30
2019-03-30T11:03:25.396Z,53.20
2019-03-30T11:05:53.840Z,53.50
2019-03-30T11:08:24.216Z,53.70
2019-03-30T11:10:52.492Z,54.20
2019-03-30T11:13:21.106Z,54.20
2019-03-30T11:15:50.590Z,53.90
2019-03-30T11:18:19.146Z,53.80
2019-03-30T11:20:47.514Z,53.20
2019-03-30T11:23:17.597Z,53.10
2019-03-30T11:25:46.030Z,53.60
2019-03-30T11:28:14.412Z,54.30
2019-03-30T11:30:42.736Z,54.20
2019-03-30T11:33:11.394Z,53.70
2019-03-30T11:35:39.791Z,53.50
2019-03-30T11:38:08.123Z,53.80
2019-03-30T11:40:38.326Z,54.30
2019-03-30T11:43:06.656Z,53.90
2019-03-30T11:45:34.902Z,53.70
2019-03-30T11:48:03.256Z,54.60
2019-03-30T11:50:31.442Z,54.30
2019-03-30T11:52:59.777Z,55.10
2019-03-30T11:55:28.240Z,55.00
2019-03-30T11:57:56.683Z,54.80
2019-03-30T12:00:25.107Z,54.40
2019-03-30T12:02:53.410Z,54.20
2019-03-30T12:05:21.871Z,54.70
2019-03-30T12:07:52.984Z,54.30
2019-03-30T12:10:23.611Z,54.70
2019-03-30T12:12:52.258Z,53.90
2019-03-30T12:15:21.734Z,53.40
2019-03-30T12:17:50.633Z,53.60
2019-03-30T12:20:18.882Z,54.40
2019-03-30T12:22:47.192Z,53.90
2019-03-30T12:25:15.449Z,54.20
2019-03-30T12:27:43.660Z,54.30
2019-03-30T12:30:12.223Z,54.20
2019-03-30T12:32:40.791Z,54.10
2019-03-30T12:35:09.235Z,54.40
2019-03-30T12:37:37.733Z,54.50
2019-03-30T12:40:07.262Z,53.90
2019-03-30T12:42:38.516Z,53.80
2019-03-30T12:45:07.013Z,53.30
2019-03-30T12:47:35.798Z,53.30
2019-03-30T12:50:06.863Z,53.40
2019-03-30T12:52:35.124Z,53.00
2019-03-30T12:55:03.498Z,52.40
2019-03-30T12:57:31.769Z,52.80
2019-03-30T13:00:00.663Z,53.00
2019-03-30T13:02:28.866Z,52.40
2019-03-30T13:04:57.306Z,52.00
2019-03-30T13:07:28.644Z,52.50
2019-03-30T13:09:56.961Z,52.60
2019-03-30T13:12:25.230Z,51.80
2019-03-30T13:14:53.422Z,51.30
2019-03-30T13:17:21.734Z,51.10
2019-03-30T13:19:50.075Z,51.20
2019-03-30T13:22:18.932Z,50.80
2019-03-30T13:24:47.196Z,50.10
2019-03-30T13:27:15.851Z,50.10
2019-03-30T13:29:44.385Z,50.50
2019-03-30T13:32:13.009Z,50.10
2019-03-30T13:34:41.374Z,49.90
2019-03-30T13:37:15.660Z,49.40
2019-03-30T13:39:44.772Z,49.80
2019-03-30T13:42:13.843Z,49.10
2019-03-30T13:44:42.384Z,49.00
2019-03-30T13:47:10.827Z,48.50
2019-03-30T13:49:39.107Z,48.80
2019-03-30T13:52:07.506Z,48.50
2019-03-30T13:54:41.519Z,47.60
2019-03-30T13:57:10.276Z,47.90
2019-03-30T13:59:38.668Z,48.20
2019-03-30T14:02:07.250Z,48.40
2019-03-30T14:04:35.946Z,48.10
2019-03-30T14:07:04.380Z,48.00
2019-03-30T14:09:35.473Z,48.40
2019-03-30T14:12:09.937Z,49.30
2019-03-30T14:14:38.738Z,48.90
2019-03-30T14:17:06.962Z,49.00
2019-03-30T14:19:35.380Z,49.50
2019-03-30T14:22:03.906Z,48.30
2019-03-30T14:24:33.497Z,47.30
2019-03-30T14:27:01.968Z,47.40
2019-03-30T14:29:30.368Z,47.80
2019-03-30T14:31:58.743Z,48.50
2019-03-30T14:34:27.116Z,47.90
2019-03-30T14:36:55.588Z,47.90
2019-03-30T14:39:24.693Z,47.30
2019-03-30T14:41:53.009Z,47.90
2019-03-30T14:44:22.086Z,47.60
2019-03-30T14:46:50.576Z,46.50
2019-03-30T14:49:18.973Z,46.40
2019-03-30T14:51:50.430Z,47.00
2019-03-30T14:54:18.646Z,47.30
2019-03-30T14:56:47.020Z,47.60
2019-03-30T14:59:15.648Z,48.10
2019-03-30T15:01:47.260Z,48.60
2019-03-30T15:04:16.414Z,48.00
2019-03-30T15:06:44.846Z,48.20
2019-03-30T15:09:16.357Z,48.20
2019-03-30T15:11:46.785Z,49.00
2019-03-30T15:14:16.963Z,48.60
2019-03-30T15:16:45.830Z,48.90
2019-03-30T15:19:14.280Z,49.60
2019-03-30T15:21:45.384Z,49.40
2019-03-30T15:24:13.832Z,48.70
2019-03-30T15:26:42.528Z,48.80
2019-03-30T15:29:11.270Z,49.30
2019-03-30T15:31:41.122Z,49.40
2019-03-30T15:34:09.703Z,49.60
2019-03-30T15:36:38.101Z,49.60
2019-03-30T15:39:07.672Z,49.50
2019-03-30T15:41:36.205Z,49.20
2019-03-30T15:44:04.736Z,49.40
2019-03-30T15:46:33.096Z,49.50
2019-03-30T15:49:01.809Z,49.50
2019-03-30T15:51:31.200Z,50.00
2019-03-30T15:53:59.600Z,50.30
2019-03-30T15:56:27.999Z,50.60
2019-03-30T15:58:56.266Z,50.70
2019-03-30T16:01:24.974Z,50.60
2019-03-30T16:03:55.504Z,50.70
2019-03-30T16:06:24.177Z,51.40
2019-03-30T16:08:52.790Z,51.60
2019-03-30T16:11:21.188Z,52.30
2019-03-30T16:13:49.723Z,52.20
2019-03-30T16:16:18.133Z,52.30
2019-03-30T16:18:46.959Z,52.70
2019-03-30T16:21:17.327Z,52.60
2019-03-30T16:23:47.699Z,52.60
2019-03-30T16:26:15.994Z,52.50
2019-03-30T16:28:44.485Z,52.60
2019-03-30T16:31:13.363Z,52.90
2019-03-30T16:33:41.688Z,52.90
2019-03-30T16:36:10.240Z,53.30
2019-03-30T16:38:40.308Z,53.60
2019-03-30T16:41:08.627Z,53.90
2019-03-30T16:43:37.130Z,54.20
2019-03-30T16:46:07.943Z,54.60
2019-03-30T16:48:36.438Z,55.00
2019-03-30T16:51:06.980Z,55.00
2019-03-30T16:53:36.796Z,55.60
2019-03-30T16:56:05.374Z,56.20
2019-03-30T16:58:35.153Z,56.40
2019-03-30T17:01:03.716Z,57.00
2019-03-30T17:03:32.395Z,57.10
2019-03-30T17:06:03.523Z,57.50
2019-03-30T17:08:32.227Z,57.40
2019-03-30T17:11:03.503Z,58.20
2019-03-30T17:13:33.146Z,58.30
2019-03-30T17:16:02.043Z,58.80
2019-03-30T17:18:33.234Z,59.30
2019-03-30T17:21:01.853Z,59.70
2019-03-30T17:23:30.391Z,60.00
2019-03-30T17:25:59.469Z,60.40
2019-03-30T17:28:38.453Z,60.60
2019-03-30T17:31:10.567Z,60.80
2019-03-30T17:33:40.723Z,61.00
2019-03-30T17:36:10.380Z,61.40
2019-03-30T17:38:41.231Z,61.30
2019-03-30T17:41:10.166Z,61.50
2019-03-30T17:43:39.430Z,61.80
2019-03-30T17:46:08.070Z,62.10
2019-03-30T17:48:37.038Z,62.40
2019-03-30T17:51:05.771Z,62.50
2019-03-30T17:53:34.447Z,62.30
2019-03-30T17:56:03.104Z,62.20
2019-03-30T17:58:32.792Z,62.20
2019-03-30T18:01:01.451Z,62.20
2019-03-30T18:03:30.108Z,62.80
2019-03-30T18:05:58.805Z,63.50
2019-03-30T18:08:27.350Z,63.40
2019-03-30T18:10:56.125Z,63.40
2019-03-30T18:13:26.512Z,63.90
2019-03-30T18:15:55.275Z,65.70
2019-03-30T18:18:34.126Z,65.50
2019-03-30T18:21:02.822Z,65.40
2019-03-30T18:23:31.265Z,66.10
2019-03-30T18:25:59.739Z,66.50
2019-03-30T18:28:29.401Z,67.10
2019-03-30T18:30:58.117Z,67.00
2019-03-30T18:33:26.468Z,71.00
2019-03-30T18:35:55.539Z,73.70
2019-03-30T18:38:24.432Z,72.20
2019-03-30T18:40:53.123Z,71.90
2019-03-30T18:43:21.603Z,75.50
2019-03-30T18:45:50.580Z,74.70
2019-03-30T18:48:19.196Z,75.20
2019-03-30T18:50:47.771Z,75.10
2019-03-30T18:53:16.764Z,74.80
2019-03-30T18:55:45.636Z,74.70
2019-03-30T18:58:14.200Z,74.80
2019-03-30T19:00:42.791Z,75.30
2019-03-30T19:03:13.706Z,75.40
2019-03-30T19:05:44.509Z,75.60
2019-03-30T19:08:13.037Z,75.50
2019-03-30T19:10:43.546Z,75.30
2019-03-30T19:13:12.099Z,76.40
2019-03-30T19:15:40.589Z,76.50
2019-03-30T19:18:09.106Z,77.90
2019-03-30T19:20:37.640Z,77.80
2019-03-30T19:23:06.300Z,79.70
2019-03-30T19:25:35.139Z,78.80
2019-03-30T19:28:04.261Z,78.30
2019-03-30T19:30:32.839Z,78.40
2019-03-30T19:33:01.343Z,80.60
2019-03-30T19:35:29.942Z,80.30
2019-03-30T19:37:58.629Z,79.80
2019-03-30T19:40:27.281Z,80.20
2019-03-30T19:42:56.080Z,80.60
2019-03-30T19:45:24.760Z,80.50
2019-03-30T19:47:53.465Z,82.30
2019-03-30T19:50:21.925Z,81.80
2019-03-30T19:52:50.798Z,83.40
2019-03-30T19:55:19.509Z,82.20
2019-03-30T19:57:48.019Z,82.90
2019-03-30T20:00:16.968Z,82.80
2019-03-30T20:02:45.577Z,83.40
2019-03-30T20:05:14.712Z,85.40
2019-03-30T20:07:46.719Z,84.80
2019-03-30T20:10:17.476Z,85.10
2019-03-30T20:12:45.948Z,84.40
2019-03-30T20:15:14.770Z,85.20
2019-03-30T20:17:43.251Z,86.40
2019-03-30T20:20:12.068Z,86.40
2019-03-30T20:22:40.816Z,86.00
2019-03-30T20:25:09.624Z,85.60
2019-03-30T20:27:40.656Z,86.10
2019-03-30T20:30:11.079Z,85.80
2019-03-30T20:32:42.959Z,86.10
2019-03-30T20:35:10.254Z,87.20
2019-03-30T20:37:39.043Z,87.50
2019-03-30T20:40:08.480Z,87.60
2019-03-30T20:42:37.031Z,88.50
2019-03-30T20:45:06.291Z,90.10
2019-03-30T20:47:35.617Z,89.30
2019-03-30T20:50:06.324Z,88.90
2019-03-30T20:52:34.955Z,89.10
2019-03-30T20:55:04.168Z,89.50
2019-03-30T20:57:32.760Z,90.20
2019-03-30T21:00:02.401Z,90.40
2019-03-30T21:02:32.199Z,90.60
2019-03-30T21:05:02.062Z,91.00
2019-03-30T21:07:30.755Z,90.80
2019-03-30T21:09:59.852Z,90.30
2019-03-30T21:12:31.954Z,90.00
2019-03-30T21:15:00.831Z,90.40
2019-03-30T21:17:30.430Z,90.90
2019-03-30T21:19:59.268Z,90.80
2019-03-30T21:22:32.157Z,90.90
2019-03-30T21:25:06.581Z,91.30
2019-03-30T21:27:35.113Z,91.30
2019-03-30T21:30:05.968Z,87.90
2019-03-30T21:32:36.042Z,88.10
2019-03-30T21:35:05.124Z,89.30
2019-03-30T21:37:35.402Z,90.60
2019-03-30T21:40:07.153Z,90.40
2019-03-30T21:42:37.656Z,90.10
2019-03-30T21:45:09.365Z,90.00
2019-03-30T21:47:41.044Z,89.70
2019-03-30T21:50:12.804Z,89.00
2019-03-30T21:52:44.328Z,89.60
2019-03-30T21:55:13.172Z,90.10
2019-03-30T21:57:41.612Z,90.40
2019-03-30T22:00:11.586Z,90.60
2019-03-30T22:02:41.325Z,90.10
2019-03-30T22:05:11.002Z,90.30
2019-03-30T22:07:39.717Z,90.70
2019-03-30T22:10:15.486Z,90.80
2019-03-30T22:12:42.226Z,90.20
2019-03-30T22:15:12.630Z,90.40
2019-03-30T22:17:43.307Z,90.40
2019-03-30T22:20:16.452Z,90.30
2019-03-30T22:22:42.377Z,90.50
2019-03-30T22:25:11.039Z,90.70
2019-03-30T22:27:40.577Z,90.90
2019-03-30T22:30:23.595Z,91.10
2019-03-30T22:32:41.509Z,90.80
2019-03-30T22:35:10.300Z,90.60
2019-03-30T22:37:38.869Z,90.70
2019-03-30T22:40:08.829Z,90.50
2019-03-30T22:42:38.505Z,90.70
2019-03-30T22:45:07.795Z,90.80
2019-03-30T22:47:36.392Z,90.50
2019-03-30T22:50:05.779Z,90.30
2019-03-30T22:52:34.584Z,90.10
2019-03-30T22:55:04.837Z,90.60
2019-03-30T22:57:33.444Z,90.60
2019-03-30T23:00:02.894Z,90.40
2019-03-30T23:02:31.534Z,90.50
2019-03-30T23:05:00.158Z,90.60
2019-03-30T23:07:29.162Z,90.80
2019-03-30T23:09:57.846Z,90.60
2019-03-30T23:12:27.770Z,90.80
2019-03-30T23:14:56.430Z,90.50
2019-03-30T23:17:25.029Z,90.30
2019-03-30T23:19:53.705Z,90.10
2019-03-30T23:22:22.208Z,90.70
2019-03-30T23:24:50.820Z,90.60
2019-03-30T23:27:19.816Z,91.20
2019-03-30T23:29:48.504Z,90.80
2019-03-30T23:32:18.060Z,89.80
2019-03-30T23:34:46.813Z,89.20
2019-03-30T23:37:15.569Z,88.20
2019-03-30T23:39:44.120Z,88.40
2019-03-30T23:42:13.097Z,88.10
2019-03-30T23:44:44.366Z,88.20
2019-03-30T23:47:12.970Z,90.20
2019-03-30T23:49:45.157Z,90.40
2019-03-30T23:52:14.205Z,90.00
2019-03-30T23:54:43.023Z,90.10
2019-03-30T23:57:11.783Z,90.30
2019-03-30T23:59:40.577Z,90.20
